Time;durP1;ratioP1;P1;durP2;ratioP2;P2;SDS_P1;SDS_P2;PMS_P1;PMS_P2;Temp;Humidity;BMP_temperature;BMP_pressure;BME280_temperature;BME280_humidity;BME280_pressure;Samples;Min_cycle;Max_cycle;Signal;HPM_P1;HPM_P2
2021/12/13 00:00:15;;;;;;;6.88;2.47;;;11.50;99.90;;;;;;5094913;28;20440;-71
2021/12/13 00:03:10;;;;;;;8.40;3.10;;;11.50;99.90;;;;;;5107763;28;20047;-71
2021/12/13 00:05:48;;;;;;;7.72;2.38;;;11.50;99.90;;;;;;5108700;28;20079;-70
2021/12/13 00:08:28;;;;;;;7.55;1.95;;;11.50;99.90;;;;;;5108226;28;20090;-71
2021/12/13 00:11:01;;;;;;;7.80;2.08;;;11.50;99.90;;;;;;5104656;28;20511;-73
2021/12/13 00:13:35;;;;;;;10.20;2.10;;;11.50;99.90;;;;;;5071805;28;20574;-71
2021/12/13 00:16:03;;;;;;;6.68;2.58;;;11.50;99.90;;;;;;5099817;28;20499;-70
2021/12/13 00:18:33;;;;;;;8.35;2.13;;;11.50;99.90;;;;;;5090407;28;20406;-72
2021/12/13 00:21:08;;;;;;;;;;;11.50;99.90;;;;;;5093112;28;20073;-71
2021/12/13 00:23:47;;;;;;;8.52;2.17;;;11.50;99.90;;;;;;5097331;28;19930;-70
2021/12/13 00:26:30;;;;;;;6.15;2.35;;;11.50;99.90;;;;;;5071955;28;20059;-71
2021/12/13 00:28:57;;;;;;;6.43;1.92;;;11.50;99.90;;;;;;5105205;28;20044;-72
2021/12/13 00:32:05;;;;;;;7.65;2.97;;;11.50;99.90;;;;;;5101113;28;20071;-72
2021/12/13 00:34:44;;;;;;;7.73;2.83;;;11.50;99.90;;;;;;5069418;28;20122;-71
2021/12/13 00:37:16;;;;;;;5.38;2.25;;;11.50;99.90;;;;;;5090569;28;20487;-71
2021/12/13 00:39:50;;;;;;;6.00;2.10;;;11.50;99.90;;;;;;5076971;28;20055;-71
2021/12/13 00:42:17;;;;;;;6.13;2.00;;;11.50;99.90;;;;;;5109081;28;20052;-71
2021/12/13 00:44:48;;;;;;;9.07;2.35;;;11.50;99.90;;;;;;5105810;28;20051;-71
2021/12/13 00:47:26;;;;;;;7.38;2.13;;;11.50;99.90;;;;;;5111200;28;20085;-71
2021/12/13 00:50:24;;;;;;;6.70;2.03;;;11.40;99.90;;;;;;5077828;28;20101;-71
2021/12/13 00:52:51;;;;;;;7.55;2.10;;;11.50;99.90;;;;;;5096486;28;20048;-71
2021/12/13 00:55:21;;;;;;;7.85;1.92;;;11.40;99.90;;;;;;5112596;28;20058;-72
2021/12/13 00:58:04;;;;;;;6.15;2.10;;;11.40;99.90;;;;;;5111417;28;20122;-71
2021/12/13 01:00:35;;;;;;;7.40;2.55;;;11.40;99.90;;;;;;5106727;28;20079;-71
2021/12/13 01:03:14;;;;;;;7.40;2.45;;;11.40;99.90;;;;;;5078826;28;20040;-71
2021/12/13 01:06:10;;;;;;;8.57;2.53;;;11.30;99.90;;;;;;5091241;28;20152;-71
2021/12/13 01:09:28;;;;;;;7.45;2.35;;;11.30;99.90;;;;;;5110114;28;20058;-71
2021/12/13 01:11:59;;;;;;;5.57;2.42;;;11.20;99.90;;;;;;5053606;28;20550;-71
2021/12/13 01:14:53;;;;;;;8.38;2.25;;;11.20;99.90;;;;;;5111874;28;20051;-71
2021/12/13 01:17:51;;;;;;;6.60;2.15;;;11.20;99.90;;;;;;5110397;28;20055;-70
2021/12/13 01:20:57;;;;;;;10.07;3.05;;;11.20;99.90;;;;;;5098643;28;20138;-73
2021/12/13 01:23:40;;;;;;;9.02;2.53;;;11.20;99.90;;;;;;5097417;28;20407;-70
2021/12/13 01:29:11;;;;;;;8.70;2.38;;;11.20;99.90;;;;;;5081317;28;20039;-71
2021/12/13 01:31:59;;;;;;;6.32;2.08;;;11.20;99.90;;;;;;5111923;28;20047;-71
2021/12/13 01:34:27;;;;;;;5.72;2.42;;;11.20;99.90;;;;;;5105365;28;20051;-71
2021/12/13 01:37:04;;;;;;;8.77;2.85;;;11.20;99.90;;;;;;5091260;28;20045;-71
2021/12/13 01:39:32;;;;;;;6.15;2.58;;;11.20;99.90;;;;;;5085137;28;20431;-71
2021/12/13 01:46:08;;;;;;;8.57;2.78;;;11.20;99.90;;;;;;5112263;28;20069;-71
2021/12/13 01:48:40;;;;;;;6.20;2.17;;;11.10;99.90;;;;;;5109478;28;20051;-72
2021/12/13 01:51:11;;;;;;;8.13;2.65;;;11.10;99.90;;;;;;5111415;28;20060;-71
2021/12/13 01:53:48;;;;;;;10.25;2.53;;;11.10;99.90;;;;;;5112452;28;20115;-70
2021/12/13 01:56:53;;;;;;;12.82;2.70;;;11.10;99.90;;;;;;5112286;28;20147;-71
2021/12/13 02:00:08;;;;;;;6.72;2.42;;;11.10;99.90;;;;;;5107675;28;20130;-70
2021/12/13 02:02:36;;;;;;;5.93;2.20;;;11.10;99.90;;;;;;5111900;28;20505;-71
2021/12/13 02:05:11;;;;;;;7.67;2.27;;;11.10;99.90;;;;;;5112439;27;20047;-72
2021/12/13 02:07:44;;;;;;;9.57;2.08;;;11.10;99.90;;;;;;5112190;27;20039;-72
2021/12/13 02:10:31;;;;;;;4.70;2.00;;;11.10;99.90;;;;;;5112053;28;20040;-72
2021/12/13 02:13:02;;;;;;;4.55;1.83;;;11.10;99.90;;;;;;5090612;28;20444;-72
2021/12/13 02:18:23;;;;;;;8.68;2.10;;;11.00;99.90;;;;;;5101628;28;20402;-71
2021/12/13 02:21:06;;;;;;;4.28;1.83;;;11.00;99.90;;;;;;5111741;28;20376;-72
2021/12/13 02:23:39;;;;;;;7.28;2.42;;;10.90;99.90;;;;;;5111999;28;20123;-72
2021/12/13 02:26:06;;;;;;;10.27;2.35;;;10.90;99.90;;;;;;5110642;28;20426;-71
2021/12/13 02:28:35;;;;;;;7.38;1.98;;;10.80;99.90;;;;;;5105733;28;20495;-72
2021/12/13 02:31:11;;;;;;;6.05;2.53;;;10.80;99.90;;;;;;5092270;28;20118;-71
2021/12/13 02:33:48;;;;;;;4.15;1.95;;;10.70;99.90;;;;;;5090090;28;20047;-72
2021/12/13 02:36:25;;;;;;;7.57;2.50;;;10.70;99.90;;;;;;5090650;28;20067;-71
2021/12/13 02:38:54;;;;;;;6.32;2.83;;;10.70;99.90;;;;;;5111833;28;20055;-72
2021/12/13 02:41:23;;;;;;;4.35;2.10;;;10.70;99.90;;;;;;5093032;28;20055;-71
2021/12/13 02:43:52;;;;;;;7.57;1.83;;;10.70;99.90;;;;;;5111259;28;20047;-72
2021/12/13 02:46:19;;;;;;;;;;;10.70;99.90;;;;;;5106747;28;20061;-71
2021/12/13 02:48:52;;;;;;;6.63;2.00;;;10.70;99.90;;;;;;5111054;28;19920;-71
2021/12/13 02:51:28;;;;;;;5.05;1.83;;;10.70;99.90;;;;;;5109857;28;20179;-71
2021/12/13 02:53:57;;;;;;;7.32;2.20;;;10.70;99.90;;;;;;5099823;28;20497;-71
2021/12/13 02:56:30;;;;;;;6.47;2.05;;;10.70;99.90;;;;;;5105167;28;20491;-71
2021/12/13 02:58:57;;;;;;;10.15;3.33;;;10.70;99.90;;;;;;5108909;28;20520;-70
2021/12/13 03:01:28;;;;;;;3.05;1.70;;;10.80;99.90;;;;;;5107698;28;20135;-71
2021/12/13 03:03:58;;;;;;;7.50;2.38;;;10.80;99.90;;;;;;5109254;28;20047;-71
2021/12/13 03:06:28;;;;;;;7.78;2.20;;;10.80;99.90;;;;;;5109087;28;20503;-71
2021/12/13 03:09:02;;;;;;;11.38;3.20;;;10.80;99.90;;;;;;5105482;28;20048;-71
2021/12/13 03:11:32;;;;;;;5.72;2.25;;;10.90;99.90;;;;;;5103105;28;20131;-71
2021/12/13 03:14:09;;;;;;;7.68;1.85;;;10.90;99.90;;;;;;5089251;28;20106;-71
2021/12/13 03:16:54;;;;;;;4.72;2.22;;;10.90;99.90;;;;;;5104366;28;20463;-70
2021/12/13 03:19:38;;;;;;;8.60;1.77;;;11.00;99.90;;;;;;5109389;28;20131;-73
2021/12/13 03:22:30;;;;;;;9.15;1.77;;;11.00;99.90;;;;;;5109178;28;20486;-72
2021/12/13 03:25:07;;;;;;;9.20;2.35;;;11.00;99.90;;;;;;5109705;28;20043;-73
2021/12/13 03:27:56;;;;;;;2.70;1.55;;;11.00;99.90;;;;;;5108440;28;20864;-73
2021/12/13 03:30:26;;;;;;;5.32;2.13;;;11.00;99.90;;;;;;5088617;28;20115;-71
2021/12/13 03:32:56;;;;;;;6.65;1.95;;;11.00;99.90;;;;;;5105228;28;20043;-72
2021/12/13 03:35:26;;;;;;;5.10;1.92;;;11.00;99.90;;;;;;5109507;28;20071;-72
2021/12/13 03:37:59;;;;;;;8.95;1.88;;;11.00;99.90;;;;;;5110824;28;20067;-72
2021/12/13 03:40:26;;;;;;;5.63;1.70;;;11.00;99.90;;;;;;5091910;28;20071;-73
2021/12/13 03:42:56;;;;;;;7.32;1.75;;;11.00;99.90;;;;;;5109698;28;20082;-72
2021/12/13 03:45:31;;;;;;;;;;;11.00;99.90;;;;;;5092670;28;20065;-72
2021/12/13 03:47:58;;;;;;;5.63;2.15;;;11.00;99.90;;;;;;5110329;28;19971;-72
2021/12/13 03:50:36;;;;;;;10.13;2.22;;;11.00;99.90;;;;;;5108622;28;20127;-72
2021/12/13 03:53:08;;;;;;;5.35;1.63;;;11.00;99.90;;;;;;5108379;28;20088;-72
2021/12/13 03:55:37;;;;;;;4.63;2.25;;;11.00;99.90;;;;;;5108102;28;20570;-72
2021/12/13 03:58:06;;;;;;;6.30;1.95;;;11.00;99.90;;;;;;5110027;28;20039;-71
2021/12/13 04:00:37;;;;;;;9.40;2.50;;;11.00;99.90;;;;;;5105309;28;20388;-72
2021/12/13 04:03:08;;;;;;;7.63;1.88;;;11.00;99.90;;;;;;5108225;28;20112;-72
2021/12/13 04:05:35;;;;;;;5.78;1.60;;;11.00;99.90;;;;;;5108625;28;20201;-72
2021/12/13 04:08:04;;;;;;;3.20;1.55;;;11.00;99.90;;;;;;5109206;28;20044;-72
2021/12/13 04:10:34;;;;;;;2.10;1.60;;;11.00;99.90;;;;;;5088447;28;20100;-71
2021/12/13 04:13:10;;;;;;;4.20;1.73;;;11.00;99.90;;;;;;5105532;28;20044;-72
2021/12/13 04:19:06;;;;;;;3.65;1.67;;;10.90;99.90;;;;;;5088729;28;20052;-72
2021/12/13 04:21:33;;;;;;;3.42;1.30;;;10.80;99.90;;;;;;5093923;28;20130;-72
2021/12/13 04:24:03;;;;;;;6.65;1.98;;;10.80;99.90;;;;;;5114529;28;20052;-72
2021/12/13 04:26:31;;;;;;;6.65;1.65;;;10.80;99.90;;;;;;5096127;28;20047;-71
2021/12/13 04:28:59;;;;;;;6.57;1.98;;;10.80;99.90;;;;;;5113014;28;20134;-72
2021/12/13 04:31:30;;;;;;;6.65;2.10;;;10.80;99.90;;;;;;5112907;28;20383;-72
2021/12/13 04:33:59;;;;;;;3.92;1.88;;;10.90;99.90;;;;;;5113061;28;20043;-72
2021/12/13 04:36:33;;;;;;;5.65;1.50;;;10.90;99.90;;;;;;5113562;28;20047;-72
2021/12/13 04:39:02;;;;;;;5.32;1.55;;;10.90;99.90;;;;;;5111654;28;20157;-71
2021/12/13 04:41:36;;;;;;;4.60;1.73;;;10.80;99.90;;;;;;5112419;28;20127;-72
2021/12/13 04:44:26;;;;;;;2.88;1.35;;;10.70;99.90;;;;;;5093486;28;20052;-72
2021/12/13 04:46:53;;;;;;;3.60;1.98;;;10.70;99.90;;;;;;5095007;28;20050;-71
2021/12/13 04:49:22;;;;;;;6.90;2.67;;;10.70;99.90;;;;;;5113514;28;20074;-72
2021/12/13 04:52:01;;;;;;;2.63;1.52;;;10.70;99.90;;;;;;5112435;28;20047;-71
2021/12/13 04:54:30;;;;;;;4.95;1.77;;;10.70;99.90;;;;;;5112646;28;20154;-72
2021/12/13 04:56:57;;;;;;;4.85;1.75;;;10.70;99.90;;;;;;5115047;27;20046;-72
2021/12/13 04:59:26;;;;;;;6.47;2.05;;;10.60;99.90;;;;;;5105226;28;20501;-72
2021/12/13 05:01:54;;;;;;;3.70;1.73;;;10.60;99.90;;;;;;5075000;28;20076;-72
2021/12/13 05:04:23;;;;;;;4.40;1.63;;;10.60;99.90;;;;;;5106641;28;20050;-72
2021/12/13 05:06:50;;;;;;;6.85;1.80;;;10.60;99.90;;;;;;5107577;28;20050;-71
2021/12/13 05:09:18;;;;;;;3.78;1.73;;;10.70;99.90;;;;;;5106483;28;20505;-72
2021/12/13 05:11:46;;;;;;;4.10;1.80;;;10.70;99.90;;;;;;5113341;28;20165;-72
2021/12/13 05:14:14;;;;;;;7.18;1.92;;;10.60;99.90;;;;;;5112724;28;20126;-72
2021/12/13 05:16:44;;;;;;;3.90;1.63;;;10.60;99.90;;;;;;5111035;28;20046;-72
2021/12/13 05:19:12;;;;;;;;;;;10.60;99.90;;;;;;5110885;28;20048;-72
2021/12/13 05:21:42;;;;;;;5.13;1.80;;;10.70;99.90;;;;;;5098570;28;19937;-72
2021/12/13 05:24:20;;;;;;;7.03;3.20;;;10.70;99.90;;;;;;5111213;28;20051;-71
2021/12/13 05:26:55;;;;;;;4.60;2.20;;;10.70;99.90;;;;;;5107352;28;20078;-72
2021/12/13 05:29:42;;;;;;;6.38;2.10;;;10.60;99.90;;;;;;5110981;28;20482;-72
2021/12/13 05:32:32;;;;;;;40.13;31.02;;;10.60;99.90;;;;;;5110071;28;20116;-70
2021/12/13 05:35:23;;;;;;;9.73;7.47;;;10.70;99.90;;;;;;5111175;28;20473;-68
2021/12/13 05:37:53;;;;;;;6.03;3.60;;;10.70;99.90;;;;;;5110755;28;20107;-69
2021/12/13 05:40:20;;;;;;;3.30;1.98;;;10.70;99.90;;;;;;5094822;28;20171;-70
2021/12/13 05:42:54;;;;;;;4.95;1.70;;;10.80;99.90;;;;;;5112245;28;20507;-70
2021/12/13 05:45:39;;;;;;;3.90;1.85;;;10.80;99.90;;;;;;5112775;28;20048;-70
2021/12/13 05:48:15;;;;;;;7.15;2.35;;;10.80;99.90;;;;;;5112783;28;20052;-71
2021/12/13 05:50:45;;;;;;;6.85;1.65;;;10.90;99.90;;;;;;5094416;28;20047;-71
2021/12/13 05:53:18;;;;;;;8.05;2.55;;;10.90;99.90;;;;;;5111487;28;20150;-70
2021/12/13 05:55:51;;;;;;;4.25;2.30;;;10.90;99.90;;;;;;5092992;28;20118;-70
2021/12/13 05:58:38;;;;;;;6.32;2.55;;;10.90;99.90;;;;;;5111963;28;20052;-70
2021/12/13 06:01:31;;;;;;;8.13;2.30;;;10.90;99.90;;;;;;5102516;28;20433;-70
2021/12/13 06:04:07;;;;;;;6.18;2.45;;;10.90;99.90;;;;;;5111234;28;20043;-70
2021/12/13 06:06:43;;;;;;;3.92;1.80;;;10.90;99.90;;;;;;5092151;28;20044;-70
2021/12/13 06:09:10;;;;;;;4.90;2.30;;;11.00;99.90;;;;;;5108889;28;20493;-70
2021/12/13 06:11:38;;;;;;;4.80;1.80;;;11.00;99.90;;;;;;5077209;28;20087;-70
2021/12/13 06:14:18;;;;;;;3.03;1.90;;;11.00;99.90;;;;;;5098817;28;20486;-70
2021/12/13 06:16:55;;;;;;;5.28;1.85;;;11.00;99.90;;;;;;5111075;28;20040;-70
2021/12/13 06:19:30;;;;;;;5.00;2.42;;;11.00;99.90;;;;;;5107701;28;20134;-70
2021/12/13 06:22:01;;;;;;;3.45;1.58;;;11.10;99.90;;;;;;5090527;28;20047;-70
2021/12/13 06:24:40;;;;;;;5.18;1.65;;;11.10;99.90;;;;;;5103843;28;20048;-70
2021/12/13 06:27:14;;;;;;;3.20;1.70;;;11.10;99.90;;;;;;5110624;28;20122;-70
2021/12/13 06:29:54;;;;;;;2.90;1.40;;;11.10;99.90;;;;;;5091386;28;20055;-70
2021/12/13 06:32:35;;;;;;;4.07;1.65;;;11.10;99.90;;;;;;5109618;28;20079;-70
2021/12/13 06:35:40;;;;;;;7.30;1.92;;;11.10;99.90;;;;;;5111012;28;20505;-71
2021/12/13 06:38:27;;;;;;;4.00;1.70;;;11.10;99.90;;;;;;5103304;28;20048;-70
2021/12/13 06:41:41;;;;;;;2.53;1.50;;;11.10;99.90;;;;;;5104291;28;20126;-71
2021/12/13 06:44:24;;;;;;;26.90;19.92;;;11.00;99.90;;;;;;5106790;28;20140;-71
2021/12/13 06:47:00;;;;;;;18.48;13.75;;;11.00;99.90;;;;;;5106708;28;20072;-71
2021/12/13 06:49:35;;;;;;;71.32;56.80;;;11.10;99.90;;;;;;5109742;28;20924;-67
2021/12/13 06:52:11;;;;;;;18.45;7.93;;;11.10;99.90;;;;;;5110617;28;20043;-70
2021/12/13 06:54:43;;;;;;;4.53;2.10;;;11.10;99.90;;;;;;5107541;28;20477;-72
2021/12/13 06:57:13;;;;;;;3.85;1.48;;;11.10;99.90;;;;;;5087275;28;20171;-67
2021/12/13 06:59:56;;;;;;;5.22;1.55;;;11.10;99.90;;;;;;5108150;28;20435;-69
2021/12/13 07:02:48;;;;;;;6.15;1.77;;;11.10;99.90;;;;;;5111474;28;20047;-64
2021/12/13 07:05:19;;;;;;;4.05;1.92;;;11.10;99.90;;;;;;5109830;28;20506;-65
2021/12/13 07:08:23;;;;;;;3.17;1.50;;;11.10;99.90;;;;;;5110312;28;20048;-66
2021/12/13 07:10:55;;;;;;;11.32;2.25;;;11.10;99.90;;;;;;5102211;28;20062;-67
2021/12/13 07:13:33;;;;;;;7.18;2.30;;;11.10;99.90;;;;;;5096806;28;20072;-65
2021/12/13 07:16:11;;;;;;;63.05;42.30;;;11.10;99.90;;;;;;5109236;28;20058;-63
2021/12/13 07:18:39;;;;;;;5.82;3.05;;;11.10;99.90;;;;;;5107385;28;20123;-66
2021/12/13 07:21:20;;;;;;;5.93;1.90;;;11.10;99.90;;;;;;5106390;28;20558;-66
2021/12/13 07:24:02;;;;;;;3.05;1.55;;;11.10;99.90;;;;;;5098809;28;20095;-64
2021/12/13 07:26:29;;;;;;;2.42;1.25;;;11.10;99.90;;;;;;5110357;28;20123;-65
2021/12/13 07:28:56;;;;;;;4.90;1.88;;;11.10;99.90;;;;;;5108219;28;20461;-65
2021/12/13 07:31:23;;;;;;;5.35;1.60;;;11.20;99.90;;;;;;5100952;28;20466;-65
2021/12/13 07:33:50;;;;;;;4.95;1.65;;;11.20;99.90;;;;;;5091499;28;20085;-65
2021/12/13 07:36:27;;;;;;;6.72;2.28;;;11.20;99.90;;;;;;5085114;28;20507;-69
2021/12/13 07:39:00;;;;;;;3.75;2.08;;;11.20;99.90;;;;;;5104236;28;20096;-71
2021/12/13 07:41:37;;;;;;;5.80;1.70;;;11.20;99.90;;;;;;5099215;28;20101;-70
2021/12/13 07:44:04;;;;;;;4.40;1.73;;;11.30;99.90;;;;;;5100471;28;20035;-65
2021/12/13 07:46:31;;;;;;;3.88;1.83;;;11.20;99.90;;;;;;5071429;28;20043;-66
2021/12/13 07:49:03;;;;;;;3.58;1.85;;;11.20;99.90;;;;;;5089996;28;20485;-66
2021/12/13 07:51:58;;;;;;;10.00;2.50;;;11.20;99.90;;;;;;5091955;28;20075;-66
2021/12/13 07:54:25;;;;;;;6.63;2.63;;;11.10;99.90;;;;;;5094920;28;20051;-65
2021/12/13 07:56:58;;;;;;;4.53;2.10;;;11.10;99.90;;;;;;5107950;28;20055;-65
2021/12/13 07:59:28;;;;;;;6.82;2.20;;;11.10;99.90;;;;;;5061315;28;20048;-66
2021/12/13 08:02:08;;;;;;;6.13;2.38;;;11.10;99.90;;;;;;5100500;28;20123;-67
2021/12/13 08:04:46;;;;;;;6.00;2.72;;;11.10;99.90;;;;;;5106580;28;20065;-66
2021/12/13 08:07:40;;;;;;;3.45;2.10;;;11.10;99.90;;;;;;5103208;28;20128;-66
2021/12/13 08:10:17;;;;;;;7.80;2.85;;;11.10;99.90;;;;;;5085705;28;20126;-66
2021/12/13 08:12:50;;;;;;;5.13;2.20;;;11.10;99.90;;;;;;5103647;28;20084;-67
2021/12/13 08:16:13;;;;;;;6.35;2.72;;;11.10;99.90;;;;;;5109139;28;20118;-67
2021/12/13 08:18:44;;;;;;;8.90;2.80;;;11.10;99.90;;;;;;5100118;28;20088;-65
2021/12/13 08:21:44;;;;;;;3.60;2.30;;;11.10;99.90;;;;;;5092380;28;20056;-67
2021/12/13 08:28:04;;;;;;;8.02;2.05;;;11.20;99.90;;;;;;5109165;28;20409;-66
2021/12/13 08:30:34;;;;;;;5.90;2.10;;;11.20;99.90;;;;;;5091544;28;20495;-66
2021/12/13 08:37:10;;;;;;;6.75;2.60;;;11.20;99.90;;;;;;5048978;28;20232;-65
2021/12/13 08:39:37;;;;;;;11.07;4.90;;;11.30;99.90;;;;;;5087863;28;20155;-66
2021/12/13 08:42:41;;;;;;;6.30;2.95;;;11.30;99.90;;;;;;5071388;28;20048;-65
2021/12/13 08:45:26;;;;;;;12.50;4.30;;;11.30;99.90;;;;;;5103839;28;20075;-66
2021/12/13 08:47:56;;;;;;;11.23;4.18;;;11.30;99.90;;;;;;5109072;28;20447;-70
2021/12/13 08:50:27;;;;;;;5.47;2.40;;;11.30;99.90;;;;;;5109740;28;20098;-69
2021/12/13 08:56:47;;;;;;;6.05;2.63;;;11.30;99.90;;;;;;5091483;28;20515;-70
2021/12/13 08:59:32;;;;;;;7.78;2.40;;;11.40;99.90;;;;;;5109011;28;20142;-71
2021/12/13 09:02:34;;;;;;;6.80;3.13;;;11.30;99.90;;;;;;5091621;28;20052;-72
2021/12/13 09:08:48;;;;;;;5.20;2.40;;;11.40;99.90;;;;;;5111343;28;20525;-76
2021/12/13 09:11:46;;;;;;;6.65;2.80;;;11.40;99.90;;;;;;5113642;28;20145;-71
2021/12/13 09:14:42;;;;;;;7.93;3.00;;;11.30;99.90;;;;;;5111457;28;20127;-70
2021/12/13 09:17:26;;;;;;;9.43;2.60;;;11.30;99.90;;;;;;5109130;28;20667;-70
2021/12/13 09:23:53;;;;;;;24.83;16.13;;;11.40;99.90;;;;;;5112557;28;20123;-72
2021/12/13 09:26:22;;;;;;;10.93;5.07;;;11.40;99.90;;;;;;5113018;28;20507;-71
2021/12/13 09:28:52;;;;;;;;;;;11.40;99.90;;;;;;5113274;27;20069;-72
2021/12/13 09:35:23;;;;;;;4.60;2.13;;;11.50;99.90;;;;;;5111646;28;20510;-71
2021/12/13 09:37:53;;;;;;;5.55;2.17;;;11.50;99.90;;;;;;5111469;28;20052;-71
2021/12/13 09:44:19;;;;;;;14.15;3.35;;;11.50;99.90;;;;;;5111078;28;20091;-71
2021/12/13 09:50:30;;;;;;;5.20;1.88;;;11.50;99.90;;;;;;5112361;28;20066;-71
2021/12/13 09:53:01;;;;;;;;;;;11.50;99.90;;;;;;5111997;28;20047;-71
2021/12/13 09:55:33;;;;;;;10.30;2.97;;;11.50;99.90;;;;;;5112142;28;19983;-71
2021/12/13 09:58:18;;;;;;;4.97;2.08;;;11.50;99.90;;;;;;5092889;28;20056;-71
2021/12/13 10:01:04;;;;;;;8.75;2.58;;;11.50;99.90;;;;;;5110335;28;20428;-72
2021/12/13 10:03:32;;;;;;;5.57;2.25;;;11.50;99.90;;;;;;5112155;28;20061;-72
2021/12/13 10:06:05;;;;;;;5.68;1.98;;;11.50;99.90;;;;;;5111457;28;20043;-72
2021/12/13 10:09:08;;;;;;;7.13;1.83;;;11.60;99.90;;;;;;5110822;28;20048;-71
2021/12/13 10:11:46;;;;;;;8.20;3.28;;;11.50;99.90;;;;;;5093746;28;20142;-71
2021/12/13 10:14:13;;;;;;;5.75;2.00;;;11.40;99.90;;;;;;5111402;28;20401;-71
2021/12/13 10:16:42;;;;;;;7.80;2.00;;;11.30;99.90;;;;;;5094095;28;20055;-71
2021/12/13 10:19:11;;;;;;;3.63;1.95;;;11.30;99.90;;;;;;5094414;28;20428;-70
2021/12/13 10:21:41;;;;;;;4.40;1.70;;;11.20;99.90;;;;;;5094366;28;20047;-71
2021/12/13 10:24:15;;;;;;;2.55;1.40;;;11.30;99.90;;;;;;5093397;28;20040;-71
2021/12/13 10:26:43;;;;;;;3.95;1.30;;;11.20;99.90;;;;;;5110653;28;20193;-71
2021/12/13 10:29:30;;;;;;;5.30;2.00;;;11.20;99.90;;;;;;5110788;28;20050;-71
2021/12/13 10:32:07;;;;;;;8.30;1.48;;;11.20;99.90;;;;;;5094014;28;20051;-71
2021/12/13 10:34:37;;;;;;;3.20;1.17;;;11.30;99.90;;;;;;5110993;28;20044;-71
2021/12/13 10:37:19;;;;;;;3.75;1.55;;;11.30;99.90;;;;;;5093724;28;20509;-71
2021/12/13 10:39:51;;;;;;;6.85;2.63;;;11.30;99.90;;;;;;5112078;28;20100;-71
2021/12/13 10:42:32;;;;;;;2.28;1.30;;;11.40;99.90;;;;;;5109507;28;20043;-71
2021/12/13 10:45:00;;;;;;;3.20;1.30;;;11.40;99.90;;;;;;5093970;28;20116;-71
2021/12/13 10:47:34;;;;;;;7.38;1.50;;;11.50;99.90;;;;;;5107371;28;20047;-70
2021/12/13 10:50:03;;;;;;;3.20;1.35;;;11.40;99.90;;;;;;5057502;28;20051;-71
2021/12/13 10:52:33;;;;;;;4.32;1.50;;;11.40;99.90;;;;;;5056848;28;20457;-71
2021/12/13 10:55:10;;;;;;;8.20;1.90;;;11.40;99.90;;;;;;5084479;28;20055;-71
2021/12/13 10:57:43;;;;;;;8.02;1.40;;;11.50;99.90;;;;;;5093451;28;20046;-71
2021/12/13 11:00:13;;;;;;;5.30;1.50;;;11.50;99.90;;;;;;5092393;28;20044;-71
2021/12/13 11:02:40;;;;;;;113.88;78.00;;;11.50;99.90;;;;;;5102322;28;20232;-72
2021/12/13 11:05:13;;;;;;;6.90;3.58;;;11.60;99.90;;;;;;5110758;28;20113;-69
2021/12/13 11:07:41;;;;;;;8.70;4.78;;;11.60;99.90;;;;;;5110772;28;20047;-64
2021/12/13 11:10:10;;;;;;;3.30;1.67;;;11.70;99.90;;;;;;5098235;28;20080;-82
2021/12/13 11:12:42;;;;;;;4.10;1.20;;;11.70;99.90;;;;;;5102392;28;20126;-69
2021/12/13 11:15:25;;;;;;;2.22;1.05;;;11.70;99.90;;;;;;5088213;28;20135;-67
2021/12/13 11:17:54;;;;;;;3.38;1.33;;;11.80;99.90;;;;;;5102927;28;20051;-71
2021/12/13 11:20:24;;;;;;;1.77;1.02;;;11.70;99.90;;;;;;5110683;28;20043;-75
2021/12/13 11:22:51;;;;;;;1.08;0.80;;;11.70;99.90;;;;;;5110959;28;20099;-68
2021/12/13 11:25:22;;;;;;;3.72;1.20;;;11.80;99.90;;;;;;5108775;28;20044;-74
2021/12/13 11:27:49;;;;;;;3.78;1.30;;;11.80;99.90;;;;;;5108548;28;20043;-71
2021/12/13 11:30:20;;;;;;;4.05;1.30;;;11.80;99.90;;;;;;5108828;28;20055;-72
2021/12/13 11:32:56;;;;;;;3.55;1.27;;;11.80;99.90;;;;;;5109723;28;20127;-71
2021/12/13 11:35:55;;;;;;;12.00;1.77;;;11.90;99.90;;;;;;5110457;28;20130;-70
2021/12/13 11:38:51;;;;;;;3.83;1.13;;;12.00;99.90;;;;;;5101390;28;20079;-68
2021/12/13 11:41:18;;;;;;;2.97;1.13;;;12.00;99.90;;;;;;5106696;28;20456;-70
2021/12/13 11:43:53;;;;;;;4.53;1.15;;;12.00;99.90;;;;;;5109134;28;20121;-72
2021/12/13 11:46:27;;;;;;;2.92;1.00;;;12.00;99.90;;;;;;5110655;28;20047;-75
2021/12/13 11:49:15;;;;;;;3.42;0.90;;;12.10;99.90;;;;;;5110043;28;20047;-71
2021/12/13 11:51:57;;;;;;;5.32;1.90;;;12.10;99.90;;;;;;5108313;28;20082;-68
2021/12/13 11:54:54;;;;;;;1.42;0.70;;;12.10;99.90;;;;;;5095697;28;20043;-68
2021/12/13 11:57:59;;;;;;;1.83;0.80;;;12.00;99.90;;;;;;5108602;28;20083;-71
2021/12/13 12:01:23;;;;;;;3.83;1.00;;;12.00;99.90;;;;;;5098100;28;20099;-69
2021/12/13 12:04:27;;;;;;;2.08;0.90;;;12.10;99.90;;;;;;5045804;28;20053;-69
2021/12/13 12:07:12;;;;;;;1.92;1.13;;;12.00;99.90;;;;;;5047180;28;20074;-72
2021/12/13 12:10:12;;;;;;;4.90;1.08;;;11.90;99.90;;;;;;5100550;28;20122;-70
2021/12/13 12:12:51;;;;;;;3.83;0.80;;;11.90;99.90;;;;;;5095836;28;20047;-72
2021/12/13 12:15:18;;;;;;;2.08;1.05;;;11.80;99.90;;;;;;5107575;28;20120;-69
2021/12/13 12:17:45;;;;;;;2.92;1.02;;;11.70;99.90;;;;;;5101660;28;20051;-68
2021/12/13 12:20:14;;;;;;;4.38;1.38;;;11.70;99.90;;;;;;5089719;28;20143;-67
2021/12/13 12:22:49;;;;;;;;;;;11.70;99.90;;;;;;5090155;28;20064;-68
2021/12/13 12:25:17;;;;;;;15.25;9.65;;;11.60;99.90;;;;;;5089912;28;19920;-67
2021/12/13 12:27:44;;;;;;;6.47;3.65;;;11.80;99.90;;;;;;5088609;28;20048;-66
2021/12/13 12:30:14;;;;;;;2.50;1.50;;;11.80;99.90;;;;;;5099618;28;20047;-68
2021/12/13 12:32:50;;;;;;;3.28;1.17;;;11.80;99.90;;;;;;5108244;28;20048;-67
2021/12/13 12:35:29;;;;;;;5.18;1.40;;;11.80;99.90;;;;;;5092249;28;20187;-69
2021/12/13 12:38:02;;;;;;;3.47;1.20;;;11.80;99.90;;;;;;5108594;28;20555;-69
2021/12/13 12:40:47;;;;;;;4.20;1.60;;;11.70;99.90;;;;;;5109446;28;20148;-69
2021/12/13 12:43:19;;;;;;;2.45;1.30;;;11.70;99.90;;;;;;5112003;28;20039;-68
2021/12/13 12:45:51;;;;;;;2.80;0.95;;;11.70;99.90;;;;;;5111370;28;20131;-68
2021/12/13 12:48:38;;;;;;;2.22;1.05;;;11.70;99.90;;;;;;5095550;28;20486;-69
2021/12/13 12:51:19;;;;;;;1.77;1.10;;;11.70;99.90;;;;;;5091764;28;20044;-69
2021/12/13 12:54:05;;;;;;;4.15;1.15;;;11.70;99.90;;;;;;5096636;28;20064;-69
2021/12/13 12:56:46;;;;;;;3.80;1.65;;;11.70;99.90;;;;;;5107097;28;20040;-69
2021/12/13 12:59:22;;;;;;;3.45;1.35;;;11.70;99.90;;;;;;5107283;28;20047;-68
2021/12/13 13:02:04;;;;;;;2.13;1.50;;;11.80;99.90;;;;;;5095743;28;20055;-68
2021/12/13 13:04:35;;;;;;;11.40;7.85;;;11.80;99.90;;;;;;5112660;28;20405;-71
2021/12/13 13:07:05;;;;;;;4.88;2.05;;;11.90;99.90;;;;;;5112802;28;20058;-65
2021/12/13 13:09:46;;;;;;;4.55;1.40;;;11.90;99.90;;;;;;5112734;28;20139;-67
2021/12/13 13:12:16;;;;;;;3.78;1.30;;;11.90;99.90;;;;;;5097447;28;20063;-67
2021/12/13 13:14:49;;;;;;;3.15;1.27;;;11.90;99.90;;;;;;5113412;28;20091;-68
2021/12/13 13:17:16;;;;;;;5.65;1.50;;;11.90;99.90;;;;;;5094080;28;20418;-67
2021/12/13 13:19:45;;;;;;;5.55;2.25;;;11.90;99.90;;;;;;5111095;28;20135;-67
2021/12/13 13:22:25;;;;;;;3.05;1.52;;;11.90;99.90;;;;;;5108853;28;20405;-67
2021/12/13 13:25:17;;;;;;;5.38;1.30;;;11.80;99.90;;;;;;5083094;28;20523;-67
2021/12/13 13:27:45;;;;;;;5.63;1.48;;;11.80;99.90;;;;;;5111000;28;20523;-67
2021/12/13 13:30:40;;;;;;;5.60;1.60;;;11.80;99.90;;;;;;5111567;28;20048;-67
2021/12/13 13:33:07;;;;;;;3.00;1.08;;;11.80;99.90;;;;;;5106825;28;20086;-67
2021/12/13 13:35:34;;;;;;;2.90;1.20;;;11.80;99.90;;;;;;5110886;28;20079;-68
2021/12/13 13:38:03;;;;;;;4.82;1.50;;;11.80;99.90;;;;;;5111577;28;20055;-67
2021/12/13 13:40:32;;;;;;;3.85;1.70;;;11.80;99.90;;;;;;5110131;28;20036;-67
2021/12/13 13:43:07;;;;;;;3.83;1.27;;;11.70;99.90;;;;;;5104957;28;20452;-67
2021/12/13 13:45:36;;;;;;;3.20;1.40;;;11.80;99.90;;;;;;5095528;28;20047;-67
2021/12/13 13:48:06;;;;;;;5.88;1.30;;;11.70;99.90;;;;;;5109607;28;20139;-67
2021/12/13 13:50:37;;;;;;;3.15;1.27;;;11.70;99.90;;;;;;5098338;28;20051;-67
2021/12/13 13:53:13;;;;;;;2.10;1.30;;;11.70;99.90;;;;;;5110513;28;20121;-67
2021/12/13 13:56:02;;;;;;;5.03;1.17;;;11.70;99.90;;;;;;5110493;28;20048;-67
2021/12/13 13:58:36;;;;;;;3.22;1.20;;;11.70;99.90;;;;;;5104608;28;20127;-66
2021/12/13 14:01:18;;;;;;;4.35;1.40;;;11.70;99.90;;;;;;5102824;28;20143;-67
2021/12/13 14:04:03;;;;;;;4.72;1.60;;;11.80;99.90;;;;;;5110970;28;20711;-67
2021/12/13 14:06:38;;;;;;;3.65;1.10;;;11.80;99.90;;;;;;5110978;28;20419;-66
2021/12/13 14:09:29;;;;;;;1.92;1.20;;;11.80;99.90;;;;;;5094320;28;20159;-68
2021/12/13 14:11:59;;;;;;;3.13;1.65;;;11.80;99.90;;;;;;5112075;28;20058;-68
2021/12/13 14:14:43;;;;;;;4.85;1.67;;;11.80;99.90;;;;;;5093999;28;20051;-70
2021/12/13 14:17:11;;;;;;;2.72;0.93;;;11.80;99.90;;;;;;5108492;28;20115;-67
2021/12/13 14:19:44;;;;;;;5.15;1.58;;;11.80;99.90;;;;;;5111004;28;20474;-68